sensor_id;sensor_type;location;lat;lon;timestamp;pressure;altitude;pressure_sealevel;temperature;humidity
39197;BME280;42889;51.112;13.772;2022-09-09T00:02:00;98773.47;;;14.52;93.71
39197;BME280;42889;51.112;13.772;2022-09-09T00:04:33;98780.63;;;14.60;90.99
39197;BME280;42889;51.112;13.772;2022-09-09T00:07:36;98779.16;;;14.57;91.76
39197;BME280;42889;51.112;13.772;2022-09-09T00:10:28;98777.47;;;14.56;90.57
39197;BME280;42889;51.112;13.772;2022-09-09T00:13:16;98772.50;;;14.60;90.51
39197;BME280;42889;51.112;13.772;2022-09-09T00:16:03;98769.94;;;14.73;88.20
39197;BME280;42889;51.112;13.772;2022-09-09T00:18:46;98775.19;;;14.60;89.60
39197;BME280;42889;51.112;13.772;2022-09-09T00:21:15;98772.13;;;14.63;89.13
39197;BME280;42889;51.112;13.772;2022-09-09T00:23:48;98768.38;;;14.64;89.01
39197;BME280;42889;51.112;13.772;2022-09-09T00:26:25;98778.75;;;14.60;90.73
39197;BME280;42889;51.112;13.772;2022-09-09T00:31:35;98768.00;;;14.67;87.99
39197;BME280;42889;51.112;13.772;2022-09-09T00:34:09;98766.38;;;14.72;87.05
39197;BME280;42889;51.112;13.772;2022-09-09T00:36:40;98766.28;;;14.66;87.40
39197;BME280;42889;51.112;13.772;2022-09-09T00:39:27;98764.03;;;14.69;87.62
39197;BME280;42889;51.112;13.772;2022-09-09T00:42:10;98768.00;;;14.67;87.50
39197;BME280;42889;51.112;13.772;2022-09-09T00:50:35;98768.44;;;14.70;85.92
39197;BME280;42889;51.112;13.772;2022-09-09T00:53:28;98768.31;;;14.79;84.88
39197;BME280;42889;51.112;13.772;2022-09-09T00:58:28;98758.88;;;14.74;86.36
39197;BME280;42889;51.112;13.772;2022-09-09T01:01:04;98766.03;;;14.61;86.83
39197;BME280;42889;51.112;13.772;2022-09-09T01:03:38;98768.56;;;14.62;86.13
39197;BME280;42889;51.112;13.772;2022-09-09T01:09:21;98769.72;;;14.53;88.47
39197;BME280;42889;51.112;13.772;2022-09-09T01:11:55;98776.09;;;14.45;89.87
39197;BME280;42889;51.112;13.772;2022-09-09T01:17:09;98780.00;;;14.43;89.16
39197;BME280;42889;51.112;13.772;2022-09-09T01:22:22;98770.81;;;14.59;85.93
39197;BME280;42889;51.112;13.772;2022-09-09T01:25:29;98777.84;;;14.53;85.76
39197;BME280;42889;51.112;13.772;2022-09-09T01:27:59;98780.75;;;14.73;84.46
39197;BME280;42889;51.112;13.772;2022-09-09T01:30:27;98781.66;;;14.80;83.76
39197;BME280;42889;51.112;13.772;2022-09-09T01:32:56;98783.63;;;14.71;84.15
39197;BME280;42889;51.112;13.772;2022-09-09T01:38:08;98775.00;;;14.83;82.88
39197;BME280;42889;51.112;13.772;2022-09-09T01:40:35;98774.09;;;14.75;84.79
39197;BME280;42889;51.112;13.772;2022-09-09T01:43:02;98772.22;;;14.76;83.80
39197;BME280;42889;51.112;13.772;2022-09-09T01:45:30;98769.47;;;14.69;86.54
39197;BME280;42889;51.112;13.772;2022-09-09T01:47:57;98764.81;;;14.85;83.41
39197;BME280;42889;51.112;13.772;2022-09-09T01:50:24;98775.34;;;14.73;83.56
39197;BME280;42889;51.112;13.772;2022-09-09T01:52:56;98761.91;;;14.86;82.25
39197;BME280;42889;51.112;13.772;2022-09-09T01:55:39;98762.38;;;14.90;82.76
39197;BME280;42889;51.112;13.772;2022-09-09T02:01:09;98763.41;;;14.67;86.22
39197;BME280;42889;51.112;13.772;2022-09-09T02:03:44;98765.41;;;14.59;83.88
39197;BME280;42889;51.112;13.772;2022-09-09T02:08:47;98756.81;;;14.55;85.04
39197;BME280;42889;51.112;13.772;2022-09-09T02:11:20;98755.03;;;14.62;83.84
39197;BME280;42889;51.112;13.772;2022-09-09T02:13:50;98756.44;;;14.58;84.73
39197;BME280;42889;51.112;13.772;2022-09-09T02:16:22;98758.81;;;14.46;86.36
39197;BME280;42889;51.112;13.772;2022-09-09T02:21:30;98764.72;;;14.35;85.86
39197;BME280;42889;51.112;13.772;2022-09-09T02:24:00;98768.97;;;14.44;84.78
39197;BME280;42889;51.112;13.772;2022-09-09T02:26:32;98776.91;;;14.46;84.98
39197;BME280;42889;51.112;13.772;2022-09-09T02:29:02;98770.56;;;14.39;86.47
39197;BME280;42889;51.112;13.772;2022-09-09T02:31:30;98778.19;;;14.29;89.40
39197;BME280;42889;51.112;13.772;2022-09-09T02:34:00;98773.22;;;14.32;88.04
39197;BME280;42889;51.112;13.772;2022-09-09T02:36:31;98761.03;;;14.21;88.51
39197;BME280;42889;51.112;13.772;2022-09-09T02:39:00;98766.72;;;14.27;88.36
39197;BME280;42889;51.112;13.772;2022-09-09T02:41:32;98768.50;;;14.19;90.14
39197;BME280;42889;51.112;13.772;2022-09-09T02:43:59;98770.75;;;14.16;90.61
39197;BME280;42889;51.112;13.772;2022-09-09T02:52:27;98772.06;;;14.20;88.31
39197;BME280;42889;51.112;13.772;2022-09-09T02:55:01;98760.91;;;14.30;85.97
39197;BME280;42889;51.112;13.772;2022-09-09T02:57:31;98766.63;;;14.20;87.26
39197;BME280;42889;51.112;13.772;2022-09-09T02:59:59;98765.91;;;14.11;89.78
39197;BME280;42889;51.112;13.772;2022-09-09T03:02:27;98765.00;;;14.04;92.34
39197;BME280;42889;51.112;13.772;2022-09-09T03:04:53;98767.50;;;14.06;91.30
39197;BME280;42889;51.112;13.772;2022-09-09T03:07:20;98774.50;;;14.00;90.68
39197;BME280;42889;51.112;13.772;2022-09-09T03:09:46;98760.06;;;13.93;91.10
39197;BME280;42889;51.112;13.772;2022-09-09T03:12:13;98771.94;;;13.92;90.94
39197;BME280;42889;51.112;13.772;2022-09-09T03:14:39;98767.00;;;13.81;92.84
39197;BME280;42889;51.112;13.772;2022-09-09T03:17:07;98773.97;;;13.90;93.62
39197;BME280;42889;51.112;13.772;2022-09-09T03:19:35;98771.25;;;13.90;90.02
39197;BME280;42889;51.112;13.772;2022-09-09T03:22:02;98767.91;;;13.88;91.85
39197;BME280;42889;51.112;13.772;2022-09-09T03:24:30;98779.00;;;13.93;94.33
39197;BME280;42889;51.112;13.772;2022-09-09T03:26:57;98776.44;;;13.85;93.51
39197;BME280;42889;51.112;13.772;2022-09-09T03:29:23;98778.25;;;13.84;92.68
39197;BME280;42889;51.112;13.772;2022-09-09T03:31:50;98779.38;;;13.90;94.25
39197;BME280;42889;51.112;13.772;2022-09-09T03:34:17;98773.22;;;13.96;93.59
39197;BME280;42889;51.112;13.772;2022-09-09T03:36:43;98764.72;;;13.99;90.19
39197;BME280;42889;51.112;13.772;2022-09-09T03:39:10;98768.00;;;13.94;89.20
39197;BME280;42889;51.112;13.772;2022-09-09T03:41:37;98773.13;;;13.89;89.43
39197;BME280;42889;51.112;13.772;2022-09-09T03:44:04;98762.91;;;13.85;91.40
39197;BME280;42889;51.112;13.772;2022-09-09T03:46:31;98764.19;;;13.89;89.01
39197;BME280;42889;51.112;13.772;2022-09-09T03:48:58;98770.63;;;13.88;91.24
39197;BME280;42889;51.112;13.772;2022-09-09T03:51:24;98762.78;;;13.93;91.61
39197;BME280;42889;51.112;13.772;2022-09-09T03:53:51;98764.50;;;13.79;91.91
39197;BME280;42889;51.112;13.772;2022-09-09T03:56:17;98765.22;;;13.88;92.12
39197;BME280;42889;51.112;13.772;2022-09-09T03:58:44;98771.84;;;13.85;89.84
39197;BME280;42889;51.112;13.772;2022-09-09T04:01:12;98766.03;;;13.88;92.30
39197;BME280;42889;51.112;13.772;2022-09-09T04:03:40;98773.97;;;13.90;91.20
39197;BME280;42889;51.112;13.772;2022-09-09T04:06:09;98769.97;;;13.86;91.67
39197;BME280;42889;51.112;13.772;2022-09-09T04:08:37;98774.34;;;13.87;91.00
39197;BME280;42889;51.112;13.772;2022-09-09T04:11:04;98779.56;;;13.88;90.13
39197;BME280;42889;51.112;13.772;2022-09-09T04:13:34;98776.94;;;13.95;88.78
39197;BME280;42889;51.112;13.772;2022-09-09T04:16:02;98776.94;;;13.95;90.03
39197;BME280;42889;51.112;13.772;2022-09-09T04:18:30;98781.63;;;14.01;89.47
39197;BME280;42889;51.112;13.772;2022-09-09T04:20:57;98783.72;;;14.06;87.41
39197;BME280;42889;51.112;13.772;2022-09-09T04:23:25;98768.25;;;14.00;89.62
39197;BME280;42889;51.112;13.772;2022-09-09T04:25:54;98776.50;;;13.77;91.39
39197;BME280;42889;51.112;13.772;2022-09-09T04:28:23;98774.28;;;13.80;91.72
39197;BME280;42889;51.112;13.772;2022-09-09T04:30:50;98772.84;;;13.84;89.26
39197;BME280;42889;51.112;13.772;2022-09-09T04:33:16;98785.53;;;13.84;90.30
39197;BME280;42889;51.112;13.772;2022-09-09T04:35:48;98777.25;;;13.85;90.32
39197;BME280;42889;51.112;13.772;2022-09-09T04:38:16;98784.06;;;13.96;88.78
39197;BME280;42889;51.112;13.772;2022-09-09T04:40:46;98788.38;;;14.12;86.78
39197;BME280;42889;51.112;13.772;2022-09-09T04:43:13;98782.50;;;14.23;85.32
39197;BME280;42889;51.112;13.772;2022-09-09T04:45:46;98787.91;;;14.23;86.47
39197;BME280;42889;51.112;13.772;2022-09-09T04:48:13;98776.00;;;14.17;86.05
39197;BME280;42889;51.112;13.772;2022-09-09T04:50:40;98779.97;;;14.21;87.43
39197;BME280;42889;51.112;13.772;2022-09-09T04:53:07;98784.09;;;14.17;86.59
39197;BME280;42889;51.112;13.772;2022-09-09T04:55:34;98789.97;;;14.21;87.45
39197;BME280;42889;51.112;13.772;2022-09-09T04:58:05;98781.84;;;14.21;86.98
39197;BME280;42889;51.112;13.772;2022-09-09T05:00:32;98782.88;;;14.20;86.84
39197;BME280;42889;51.112;13.772;2022-09-09T05:03:03;98780.22;;;14.27;85.73
39197;BME280;42889;51.112;13.772;2022-09-09T05:05:31;98779.88;;;14.30;85.91
39197;BME280;42889;51.112;13.772;2022-09-09T05:08:05;98780.56;;;14.38;84.64
39197;BME280;42889;51.112;13.772;2022-09-09T05:10:33;98784.09;;;14.39;83.74
39197;BME280;42889;51.112;13.772;2022-09-09T05:12:59;98781.03;;;14.42;84.24
39197;BME280;42889;51.112;13.772;2022-09-09T05:15:26;98788.22;;;14.49;83.05
39197;BME280;42889;51.112;13.772;2022-09-09T05:17:56;98783.72;;;14.57;82.88
39197;BME280;42889;51.112;13.772;2022-09-09T05:20:23;98793.56;;;14.64;83.68
39197;BME280;42889;51.112;13.772;2022-09-09T05:22:53;98789.25;;;14.70;82.10
39197;BME280;42889;51.112;13.772;2022-09-09T05:25:20;98791.00;;;14.77;81.56
39197;BME280;42889;51.112;13.772;2022-09-09T05:27:48;98786.22;;;14.80;83.06
39197;BME280;42889;51.112;13.772;2022-09-09T05:30:15;98791.84;;;14.78;82.31
39197;BME280;42889;51.112;13.772;2022-09-09T05:32:42;98791.97;;;14.91;82.74
39197;BME280;42889;51.112;13.772;2022-09-09T05:35:09;98798.22;;;14.92;80.57
39197;BME280;42889;51.112;13.772;2022-09-09T05:37:36;98805.34;;;14.99;81.73
39197;BME280;42889;51.112;13.772;2022-09-09T05:40:02;98796.47;;;15.06;80.41
39197;BME280;42889;51.112;13.772;2022-09-09T05:42:30;98808.16;;;15.06;80.24
39197;BME280;42889;51.112;13.772;2022-09-09T05:44:58;98818.03;;;15.20;82.30
39197;BME280;42889;51.112;13.772;2022-09-09T05:47:25;98807.84;;;15.22;80.54
39197;BME280;42889;51.112;13.772;2022-09-09T05:49:54;98814.06;;;15.16;83.08
39197;BME280;42889;51.112;13.772;2022-09-09T05:52:21;98810.50;;;15.16;84.18
39197;BME280;42889;51.112;13.772;2022-09-09T05:54:48;98812.38;;;15.15;82.90
39197;BME280;42889;51.112;13.772;2022-09-09T05:57:15;98811.59;;;15.21;81.25
39197;BME280;42889;51.112;13.772;2022-09-09T05:59:41;98823.50;;;15.27;84.32
39197;BME280;42889;51.112;13.772;2022-09-09T06:02:09;98820.38;;;15.23;85.69
39197;BME280;42889;51.112;13.772;2022-09-09T06:04:35;98832.25;;;15.22;86.72
39197;BME280;42889;51.112;13.772;2022-09-09T06:07:02;98830.72;;;15.13;85.20
39197;BME280;42889;51.112;13.772;2022-09-09T06:09:28;98825.25;;;15.07;85.27
39197;BME280;42889;51.112;13.772;2022-09-09T06:11:56;98828.22;;;15.12;87.49
39197;BME280;42889;51.112;13.772;2022-09-09T06:14:24;98832.53;;;15.06;86.20
39197;BME280;42889;51.112;13.772;2022-09-09T06:16:53;98823.56;;;15.06;86.71
39197;BME280;42889;51.112;13.772;2022-09-09T06:19:19;98831.09;;;15.10;87.55
39197;BME280;42889;51.112;13.772;2022-09-09T06:21:46;98831.16;;;15.17;85.67
39197;BME280;42889;51.112;13.772;2022-09-09T06:24:14;98826.63;;;15.24;84.14
39197;BME280;42889;51.112;13.772;2022-09-09T06:26:43;98830.44;;;15.29;85.93
39197;BME280;42889;51.112;13.772;2022-09-09T06:29:11;98835.00;;;15.29;86.41
39197;BME280;42889;51.112;13.772;2022-09-09T06:31:38;98833.47;;;15.20;85.51
39197;BME280;42889;51.112;13.772;2022-09-09T06:34:06;98834.06;;;15.15;88.53
39197;BME280;42889;51.112;13.772;2022-09-09T06:36:37;98835.81;;;15.23;89.14
39197;BME280;42889;51.112;13.772;2022-09-09T06:39:05;98827.84;;;15.21;85.96
39197;BME280;42889;51.112;13.772;2022-09-09T06:41:37;98826.44;;;15.25;85.36
39197;BME280;42889;51.112;13.772;2022-09-09T06:44:04;98825.69;;;15.38;85.61
39197;BME280;42889;51.112;13.772;2022-09-09T06:46:31;98831.97;;;15.39;84.49
39197;BME280;42889;51.112;13.772;2022-09-09T06:49:00;98827.25;;;15.54;83.03
39197;BME280;42889;51.112;13.772;2022-09-09T06:51:31;98823.13;;;15.58;83.67
39197;BME280;42889;51.112;13.772;2022-09-09T06:54:00;98820.69;;;15.63;86.88
39197;BME280;42889;51.112;13.772;2022-09-09T06:56:39;98823.69;;;15.81;83.49
39197;BME280;42889;51.112;13.772;2022-09-09T06:59:10;98816.28;;;15.97;81.22
39197;BME280;42889;51.112;13.772;2022-09-09T07:01:38;98824.31;;;16.18;79.31
39197;BME280;42889;51.112;13.772;2022-09-09T07:04:07;98822.69;;;16.30;78.70
39197;BME280;42889;51.112;13.772;2022-09-09T07:06:37;98811.28;;;16.55;80.24
39197;BME280;42889;51.112;13.772;2022-09-09T07:09:06;98829.47;;;16.68;80.07
39197;BME280;42889;51.112;13.772;2022-09-09T07:11:39;98820.09;;;16.70;78.69
39197;BME280;42889;51.112;13.772;2022-09-09T07:14:08;98818.25;;;16.91;76.63
39197;BME280;42889;51.112;13.772;2022-09-09T07:16:35;98823.28;;;16.94;77.72
39197;BME280;42889;51.112;13.772;2022-09-09T07:19:04;98823.06;;;17.08;75.90
39197;BME280;42889;51.112;13.772;2022-09-09T07:21:31;98819.34;;;17.16;76.26
39197;BME280;42889;51.112;13.772;2022-09-09T07:23:58;98821.19;;;17.35;75.46
39197;BME280;42889;51.112;13.772;2022-09-09T07:26:28;98821.41;;;17.41;74.04
39197;BME280;42889;51.112;13.772;2022-09-09T07:28:55;98823.31;;;17.33;75.49
39197;BME280;42889;51.112;13.772;2022-09-09T07:31:28;98825.19;;;17.33;76.03
39197;BME280;42889;51.112;13.772;2022-09-09T07:33:57;98819.13;;;17.37;77.81
39197;BME280;42889;51.112;13.772;2022-09-09T07:36:46;98825.75;;;17.68;76.80
39197;BME280;42889;51.112;13.772;2022-09-09T07:39:14;98823.66;;;17.83;74.34
39197;BME280;42889;51.112;13.772;2022-09-09T07:41:43;98829.94;;;17.90;71.11
39197;BME280;42889;51.112;13.772;2022-09-09T07:44:12;98830.16;;;17.82;73.02
39197;BME280;42889;51.112;13.772;2022-09-09T07:46:40;98826.19;;;17.78;72.95
39197;BME280;42889;51.112;13.772;2022-09-09T07:49:08;98821.06;;;18.15;71.48
39197;BME280;42889;51.112;13.772;2022-09-09T07:51:40;98833.91;;;18.91;68.40
39197;BME280;42889;51.112;13.772;2022-09-09T07:54:09;98823.22;;;19.89;64.54
39197;BME280;42889;51.112;13.772;2022-09-09T07:56:38;98822.78;;;20.89;61.78
39197;BME280;42889;51.112;13.772;2022-09-09T07:59:06;98820.78;;;21.85;57.38
39197;BME280;42889;51.112;13.772;2022-09-09T08:01:36;98817.53;;;22.23;55.05
39197;BME280;42889;51.112;13.772;2022-09-09T08:04:08;98824.16;;;23.08;52.96
39197;BME280;42889;51.112;13.772;2022-09-09T08:06:39;98826.50;;;23.66;50.35
39197;BME280;42889;51.112;13.772;2022-09-09T08:09:08;98837.31;;;24.34;48.75
39197;BME280;42889;51.112;13.772;2022-09-09T08:11:35;98834.22;;;24.47;48.21
39197;BME280;42889;51.112;13.772;2022-09-09T08:14:06;98841.63;;;23.52;52.32
39197;BME280;42889;51.112;13.772;2022-09-09T08:16:40;98840.31;;;22.64;51.93
39197;BME280;42889;51.112;13.772;2022-09-09T08:19:08;98842.34;;;21.81;54.90
39197;BME280;42889;51.112;13.772;2022-09-09T08:21:37;98835.78;;;20.94;58.30
39197;BME280;42889;51.112;13.772;2022-09-09T08:24:06;98838.84;;;20.56;60.75
39197;BME280;42889;51.112;13.772;2022-09-09T08:26:36;98842.88;;;20.16;62.77
39197;BME280;42889;51.112;13.772;2022-09-09T08:29:06;98850.38;;;20.03;64.39
39197;BME280;42889;51.112;13.772;2022-09-09T08:31:36;98848.19;;;20.11;64.35
39197;BME280;42889;51.112;13.772;2022-09-09T08:34:05;98851.28;;;20.15;64.44
39197;BME280;42889;51.112;13.772;2022-09-09T08:36:35;98852.19;;;20.09;65.84
39197;BME280;42889;51.112;13.772;2022-09-09T08:39:05;98859.19;;;20.23;65.24
39197;BME280;42889;51.112;13.772;2022-09-09T08:55:51;98867.94;;;20.80;67.29
39197;BME280;42889;51.112;13.772;2022-09-09T08:58:33;98860.84;;;21.21;64.12
39197;BME280;42889;51.112;13.772;2022-09-09T09:07:14;98864.66;;;20.90;63.11
39197;BME280;42889;51.112;13.772;2022-09-09T09:10:08;98852.44;;;21.04;66.41
39197;BME280;42889;51.112;13.772;2022-09-09T09:12:57;98859.31;;;20.95;64.54
39197;BME280;42889;51.112;13.772;2022-09-09T09:15:30;98863.53;;;20.79;63.89
39197;BME280;42889;51.112;13.772;2022-09-09T09:17:58;98868.28;;;20.72;67.77
39197;BME280;42889;51.112;13.772;2022-09-09T09:20:47;98874.81;;;20.34;72.26
39197;BME280;42889;51.112;13.772;2022-09-09T09:23:22;98877.69;;;20.03;75.21
39197;BME280;42889;51.112;13.772;2022-09-09T09:25:55;98879.84;;;19.76;74.16
39197;BME280;42889;51.112;13.772;2022-09-09T09:28:26;98880.69;;;19.51;76.14
39197;BME280;42889;51.112;13.772;2022-09-09T09:31:07;98891.78;;;19.25;77.41
39197;BME280;42889;51.112;13.772;2022-09-09T09:33:52;98890.25;;;19.04;77.93
39197;BME280;42889;51.112;13.772;2022-09-09T09:36:23;98890.13;;;18.92;80.23
39197;BME280;42889;51.112;13.772;2022-09-09T09:39:01;98902.53;;;18.81;79.12
39197;BME280;42889;51.112;13.772;2022-09-09T09:41:50;98893.41;;;19.01;77.32
39197;BME280;42889;51.112;13.772;2022-09-09T09:44:29;98897.59;;;19.03;85.39
39197;BME280;42889;51.112;13.772;2022-09-09T09:49:35;98886.31;;;19.56;78.89
39197;BME280;42889;51.112;13.772;2022-09-09T09:52:03;98885.31;;;19.76;79.87
39197;BME280;42889;51.112;13.772;2022-09-09T09:54:37;98887.72;;;20.45;79.08
39197;BME280;42889;51.112;13.772;2022-09-09T09:57:12;98880.25;;;20.89;69.05
39197;BME280;42889;51.112;13.772;2022-09-09T09:59:41;98879.69;;;21.41;69.24
39197;BME280;42889;51.112;13.772;2022-09-09T10:02:14;98874.69;;;23.40;65.37
39197;BME280;42889;51.112;13.772;2022-09-09T10:04:42;98865.34;;;24.96;58.30
39197;BME280;42889;51.112;13.772;2022-09-09T10:07:19;98860.44;;;26.37;53.57
39197;BME280;42889;51.112;13.772;2022-09-09T10:09:52;98863.25;;;27.87;50.89
39197;BME280;42889;51.112;13.772;2022-09-09T10:15:21;98858.34;;;28.69;46.71
39197;BME280;42889;51.112;13.772;2022-09-09T10:23:21;98850.69;;;29.78;42.96
39197;BME280;42889;51.112;13.772;2022-09-09T10:26:17;98853.22;;;29.75;43.09
39197;BME280;42889;51.112;13.772;2022-09-09T10:31:59;98858.97;;;29.83;46.48
39197;BME280;42889;51.112;13.772;2022-09-09T10:40:43;98846.38;;;31.30;38.62
39197;BME280;42889;51.112;13.772;2022-09-09T10:46:51;98842.34;;;32.20;34.21
39197;BME280;42889;51.112;13.772;2022-09-09T10:52:31;98836.84;;;32.01;31.70
39197;BME280;42889;51.112;13.772;2022-09-09T10:55:14;98841.50;;;32.06;36.33
39197;BME280;42889;51.112;13.772;2022-09-09T10:57:53;98832.84;;;32.62;33.55
39197;BME280;42889;51.112;13.772;2022-09-09T11:00:44;98832.41;;;32.69;33.48
39197;BME280;42889;51.112;13.772;2022-09-09T11:03:15;98820.16;;;32.56;33.83
39197;BME280;42889;51.112;13.772;2022-09-09T11:06:06;98824.81;;;32.61;32.85
39197;BME280;42889;51.112;13.772;2022-09-09T11:08:38;98819.66;;;32.26;32.23
39197;BME280;42889;51.112;13.772;2022-09-09T11:11:21;98815.88;;;31.06;37.13
39197;BME280;42889;51.112;13.772;2022-09-09T11:16:34;98827.53;;;28.00;41.81
39197;BME280;42889;51.112;13.772;2022-09-09T11:19:11;98820.94;;;26.37;44.18
39197;BME280;42889;51.112;13.772;2022-09-09T11:21:46;98812.53;;;25.32;47.77
39197;BME280;42889;51.112;13.772;2022-09-09T11:24:23;98814.69;;;24.70;49.32
39197;BME280;42889;51.112;13.772;2022-09-09T11:35:42;98820.06;;;22.53;59.77
39197;BME280;42889;51.112;13.772;2022-09-09T11:38:26;98826.53;;;22.47;61.53
39197;BME280;42889;51.112;13.772;2022-09-09T11:41:02;98821.75;;;21.79;66.18
39197;BME280;42889;51.112;13.772;2022-09-09T11:43:34;98822.22;;;21.52;71.24
39197;BME280;42889;51.112;13.772;2022-09-09T11:46:06;98823.63;;;21.31;71.78
39197;BME280;42889;51.112;13.772;2022-09-09T11:48:38;98831.69;;;20.85;80.06
39197;BME280;42889;51.112;13.772;2022-09-09T11:51:08;98830.94;;;20.47;85.19
39197;BME280;42889;51.112;13.772;2022-09-09T11:53:50;98823.81;;;19.91;91.14
39197;BME280;42889;51.112;13.772;2022-09-09T11:56:25;98807.41;;;20.10;93.09
39197;BME280;42889;51.112;13.772;2022-09-09T11:59:04;98826.38;;;19.68;92.86
39197;BME280;42889;51.112;13.772;2022-09-09T12:01:35;98804.59;;;19.36;100.00
39197;BME280;42889;51.112;13.772;2022-09-09T12:06:46;98771.00;;;19.97;100.00
39197;BME280;42889;51.112;13.772;2022-09-09T12:09:25;98788.97;;;20.72;100.00
39197;BME280;42889;51.112;13.772;2022-09-09T12:12:21;98795.59;;;22.92;97.11
39197;BME280;42889;51.112;13.772;2022-09-09T12:15:15;98792.56;;;24.87;77.63
39197;BME280;42889;51.112;13.772;2022-09-09T12:17:49;98774.81;;;25.00;73.82
39197;BME280;42889;51.112;13.772;2022-09-09T12:20:36;98778.56;;;24.62;73.70
39197;BME280;42889;51.112;13.772;2022-09-09T12:28:52;98773.09;;;26.84;61.21
39197;BME280;42889;51.112;13.772;2022-09-09T12:31:51;98778.28;;;25.55;62.72
39197;BME280;42889;51.112;13.772;2022-09-09T12:34:32;98778.63;;;24.23;65.01
39197;BME280;42889;51.112;13.772;2022-09-09T12:37:06;98778.19;;;23.54;72.09
39197;BME280;42889;51.112;13.772;2022-09-09T12:39:42;98791.00;;;23.82;67.99
39197;BME280;42889;51.112;13.772;2022-09-09T12:42:20;98788.84;;;24.06;66.80
39197;BME280;42889;51.112;13.772;2022-09-09T12:44:58;98782.34;;;23.90;72.12
39197;BME280;42889;51.112;13.772;2022-09-09T12:47:33;98764.66;;;25.75;65.71
39197;BME280;42889;51.112;13.772;2022-09-09T12:50:04;98754.88;;;26.72;56.04
39197;BME280;42889;51.112;13.772;2022-09-09T12:52:37;98763.09;;;28.05;55.84
39197;BME280;42889;51.112;13.772;2022-09-09T12:55:06;98765.91;;;27.03;57.04
39197;BME280;42889;51.112;13.772;2022-09-09T12:57:36;98761.47;;;25.93;60.14
39197;BME280;42889;51.112;13.772;2022-09-09T13:00:07;98754.31;;;25.50;58.35
39197;BME280;42889;51.112;13.772;2022-09-09T13:02:36;98755.44;;;26.85;59.06
39197;BME280;42889;51.112;13.772;2022-09-09T13:05:40;98743.06;;;28.33;54.24
39197;BME280;42889;51.112;13.772;2022-09-09T13:08:10;98738.34;;;28.39;50.02
39197;BME280;42889;51.112;13.772;2022-09-09T13:11:06;98735.63;;;29.18;48.29
39197;BME280;42889;51.112;13.772;2022-09-09T13:13:35;98728.31;;;29.56;44.36
39197;BME280;42889;51.112;13.772;2022-09-09T13:16:03;98725.53;;;28.98;41.04
39197;BME280;42889;51.112;13.772;2022-09-09T13:18:40;98726.56;;;29.65;45.01
39197;BME280;42889;51.112;13.772;2022-09-09T13:21:07;98728.94;;;30.01;44.13
39197;BME280;42889;51.112;13.772;2022-09-09T13:23:36;98712.97;;;30.54;39.04
39197;BME280;42889;51.112;13.772;2022-09-09T13:26:18;98713.78;;;30.55;39.66
39197;BME280;42889;51.112;13.772;2022-09-09T13:28:48;98720.75;;;29.90;38.10
39197;BME280;42889;51.112;13.772;2022-09-09T13:31:39;98729.41;;;27.93;44.01
39197;BME280;42889;51.112;13.772;2022-09-09T13:34:33;98725.75;;;26.29;49.92
39197;BME280;42889;51.112;13.772;2022-09-09T13:37:05;98716.75;;;27.51;45.06
39197;BME280;42889;51.112;13.772;2022-09-09T13:39:37;98715.28;;;27.89;46.50
39197;BME280;42889;51.112;13.772;2022-09-09T13:42:05;98721.22;;;27.11;44.84
39197;BME280;42889;51.112;13.772;2022-09-09T13:44:38;98728.22;;;26.25;48.70
39197;BME280;42889;51.112;13.772;2022-09-09T13:47:17;98731.44;;;25.55;54.58
39197;BME280;42889;51.112;13.772;2022-09-09T13:49:46;98736.59;;;24.77;58.10
39197;BME280;42889;51.112;13.772;2022-09-09T13:52:18;98740.25;;;24.11;62.52
39197;BME280;42889;51.112;13.772;2022-09-09T13:54:50;98742.81;;;23.74;62.36
39197;BME280;42889;51.112;13.772;2022-09-09T13:57:23;98746.63;;;23.56;63.27
39197;BME280;42889;51.112;13.772;2022-09-09T13:59:54;98748.66;;;23.44;64.69
39197;BME280;42889;51.112;13.772;2022-09-09T14:02:32;98741.53;;;23.26;62.25
39197;BME280;42889;51.112;13.772;2022-09-09T14:05:00;98742.63;;;22.92;69.75
39197;BME280;42889;51.112;13.772;2022-09-09T14:07:28;98734.22;;;22.53;66.89
39197;BME280;42889;51.112;13.772;2022-09-09T14:09:56;98734.94;;;22.31;69.30
39197;BME280;42889;51.112;13.772;2022-09-09T14:12:24;98736.88;;;22.07;68.84
39197;BME280;42889;51.112;13.772;2022-09-09T14:14:51;98734.63;;;22.04;70.31
39197;BME280;42889;51.112;13.772;2022-09-09T14:17:19;98736.28;;;22.05;68.16
39197;BME280;42889;51.112;13.772;2022-09-09T14:19:46;98734.56;;;22.28;69.48
39197;BME280;42889;51.112;13.772;2022-09-09T14:22:14;98729.34;;;22.26;76.70
39197;BME280;42889;51.112;13.772;2022-09-09T14:24:42;98735.59;;;22.39;73.46
39197;BME280;42889;51.112;13.772;2022-09-09T14:27:10;98718.16;;;22.45;71.31
39197;BME280;42889;51.112;13.772;2022-09-09T14:29:37;98705.72;;;22.54;70.36
39197;BME280;42889;51.112;13.772;2022-09-09T14:32:05;98705.31;;;22.62;66.64
39197;BME280;42889;51.112;13.772;2022-09-09T14:34:38;98704.69;;;22.88;65.77
39197;BME280;42889;51.112;13.772;2022-09-09T14:37:06;98706.00;;;22.86;62.43
39197;BME280;42889;51.112;13.772;2022-09-09T14:39:33;98699.59;;;22.80;60.91
39197;BME280;42889;51.112;13.772;2022-09-09T14:42:01;98702.34;;;22.64;63.88
39197;BME280;42889;51.112;13.772;2022-09-09T14:44:29;98702.47;;;22.57;66.26
39197;BME280;42889;51.112;13.772;2022-09-09T14:46:57;98693.50;;;22.45;64.16
39197;BME280;42889;51.112;13.772;2022-09-09T14:49:25;98691.47;;;22.40;64.72
39197;BME280;42889;51.112;13.772;2022-09-09T14:51:53;98688.16;;;22.38;62.93
39197;BME280;42889;51.112;13.772;2022-09-09T14:54:21;98684.44;;;22.44;62.71
39197;BME280;42889;51.112;13.772;2022-09-09T14:56:50;98689.19;;;22.49;58.03
39197;BME280;42889;51.112;13.772;2022-09-09T14:59:18;98690.97;;;22.26;62.89